createdAt,value
2023-02-07T00:00:17.302Z,26.57
2023-02-07T00:04:20.403Z,30.93
2023-02-07T00:08:26.017Z,32.87
2023-02-07T00:12:31.174Z,29.50
2023-02-07T00:16:34.932Z,31.53
2023-02-07T00:20:37.987Z,35.10
2023-02-07T00:24:42.695Z,27.60
2023-02-07T00:28:45.802Z,32.20
2023-02-07T00:32:51.036Z,25.30
2023-02-07T00:36:54.274Z,35.47
2023-02-07T00:40:59.260Z,19.57
2023-02-07T00:45:03.513Z,38.47
2023-02-07T00:49:12.421Z,27.43
2023-02-07T00:53:17.042Z,29.00
2023-02-07T00:57:21.779Z,26.07
2023-02-07T01:01:27.491Z,27.10
2023-02-07T01:05:30.590Z,27.10
2023-02-07T01:09:33.810Z,33.83
2023-02-07T01:13:43.572Z,21.83
2023-02-07T01:17:48.614Z,28.33
2023-02-07T01:21:55.407Z,21.27
2023-02-07T01:26:02.740Z,38.43
2023-02-07T01:30:07.878Z,34.13
2023-02-07T01:34:15.344Z,32.73
2023-02-07T01:38:18.696Z,29.93
2023-02-07T01:42:23.304Z,34.97
2023-02-07T01:46:29.643Z,35.70
2023-02-07T01:50:33.839Z,33.27
2023-02-07T01:54:39.032Z,29.33
2023-02-07T01:58:44.412Z,27.80
2023-02-07T02:02:48.956Z,27.13
2023-02-07T02:06:52.191Z,32.37
2023-02-07T02:11:16.714Z,36.30
2023-02-07T02:15:35.568Z,27.23
2023-02-07T02:20:12.271Z,27.63
2023-02-07T02:24:44.947Z,33.03
2023-02-07T02:29:14.638Z,35.30
2023-02-07T02:33:45.825Z,38.03
2023-02-07T02:37:56.047Z,36.97
2023-02-07T02:42:03.885Z,22.57
2023-02-07T02:46:10.483Z,30.50
2023-02-07T02:50:17.318Z,35.93
2023-02-07T02:54:32.216Z,41.47
2023-02-07T02:58:48.660Z,24.70
2023-02-07T03:03:07.581Z,25.53
2023-02-07T03:07:27.531Z,27.37
2023-02-07T03:11:34.358Z,41.60
2023-02-07T03:15:49.232Z,29.00
2023-02-07T03:19:57.012Z,17.13
2023-02-07T03:24:08.667Z,25.87
2023-02-07T03:28:16.478Z,41.47
2023-02-07T03:32:22.719Z,32.07
2023-02-07T03:36:30.081Z,34.27
2023-02-07T03:40:39.671Z,37.70
2023-02-07T03:44:46.495Z,35.33
2023-02-07T03:48:52.398Z,32.43
2023-02-07T03:52:55.678Z,30.97
2023-02-07T03:57:00.334Z,37.60
2023-02-07T04:01:03.391Z,27.90
2023-02-07T04:05:07.359Z,33.73
2023-02-07T04:09:12.195Z,36.47
2023-02-07T04:13:21.737Z,28.10
2023-02-07T04:17:26.179Z,27.63
2023-02-07T04:21:36.757Z,31.73
2023-02-07T04:25:39.985Z,30.57
2023-02-07T04:29:48.775Z,33.27
2023-02-07T04:33:51.823Z,35.27
2023-02-07T04:37:56.034Z,28.83
2023-02-07T04:41:59.257Z,37.63
2023-02-07T04:46:06.236Z,37.57
2023-02-07T04:50:13.671Z,34.23
2023-02-07T04:54:16.702Z,28.70
2023-02-07T04:58:22.907Z,41.43
2023-02-07T05:02:27.478Z,31.90
2023-02-07T05:06:31.948Z,35.87
2023-02-07T05:10:38.886Z,38.63
2023-02-07T05:14:42.056Z,33.40
2023-02-07T05:18:48.684Z,29.17
2023-02-07T05:22:54.241Z,42.27
2023-02-07T05:26:57.307Z,35.50
2023-02-07T05:31:03.146Z,28.43
2023-02-07T05:35:10.562Z,29.17
2023-02-07T05:39:13.629Z,31.97
2023-02-07T05:43:17.983Z,25.67
2023-02-07T05:47:22.584Z,34.07
2023-02-07T05:51:27.039Z,32.83
2023-02-07T05:55:31.138Z,28.60
2023-02-07T05:59:34.539Z,29.83
2023-02-07T06:03:37.677Z,28.07
2023-02-07T06:07:44.159Z,27.90
2023-02-07T06:11:47.304Z,32.33
2023-02-07T06:15:50.589Z,31.17
2023-02-07T06:19:53.899Z,28.03
2023-02-07T06:23:58.462Z,14.40
2023-02-07T06:28:02.019Z,45.13
2023-02-07T06:32:05.850Z,16.17
2023-02-07T06:36:12.340Z,30.07
2023-02-07T06:40:22.423Z,30.63
2023-02-07T06:44:28.308Z,34.13
2023-02-07T06:48:32.602Z,40.67
2023-02-07T06:52:37.476Z,30.83
2023-02-07T06:56:50.066Z,42.13
2023-02-07T07:00:54.013Z,30.63
2023-02-07T07:04:57.049Z,36.67
2023-02-07T07:09:00.095Z,41.40
2023-02-07T07:13:05.008Z,23.30
2023-02-07T07:17:09.764Z,36.20
2023-02-07T07:21:16.039Z,43.80
2023-02-07T07:25:26.684Z,44.73
2023-02-07T07:29:31.094Z,37.33
2023-02-07T07:33:36.013Z,45.73
2023-02-07T07:37:41.877Z,43.93
2023-02-07T07:41:48.204Z,41.50
2023-02-07T07:45:57.040Z,37.73
2023-02-07T07:50:00.119Z,40.73
2023-02-07T07:54:04.610Z,43.63
2023-02-07T07:58:07.685Z,53.30
2023-02-07T08:02:13.986Z,39.80
2023-02-07T08:06:17.671Z,30.80
2023-02-07T08:10:23.343Z,41.57
2023-02-07T08:14:27.937Z,40.27
2023-02-07T08:18:32.744Z,38.50
2023-02-07T08:22:35.791Z,34.97
2023-02-07T08:26:38.867Z,47.63
2023-02-07T08:30:47.426Z,43.03
2023-02-07T08:34:51.968Z,42.00
2023-02-07T08:39:06.654Z,36.10
2023-02-07T08:43:12.601Z,45.50
2023-02-07T08:47:25.030Z,37.87
2023-02-07T08:51:29.915Z,33.70
2023-02-07T08:55:35.827Z,42.80
2023-02-07T08:59:39.260Z,46.00
2023-02-07T09:03:42.429Z,39.07
2023-02-07T09:07:51.903Z,40.03
2023-02-07T09:11:57.523Z,32.03
2023-02-07T09:16:00.626Z,27.53
2023-02-07T09:20:07.203Z,58.57
2023-02-07T09:24:11.778Z,50.40
2023-02-07T09:28:15.253Z,46.83
2023-02-07T09:32:18.341Z,45.47
2023-02-07T09:36:24.787Z,34.30
2023-02-07T09:40:29.364Z,47.40
2023-02-07T09:44:48.125Z,40.47
2023-02-07T09:48:55.072Z,39.93
2023-02-07T09:53:05.635Z,42.50
2023-02-07T09:57:17.850Z,41.73
2023-02-07T10:01:25.560Z,44.80
2023-02-07T10:05:39.000Z,43.97
2023-02-07T10:09:44.373Z,41.07
2023-02-07T10:14:07.891Z,42.80
2023-02-07T10:18:41.146Z,46.00
2023-02-07T10:22:53.294Z,42.30
2023-02-07T10:27:03.190Z,43.97
2023-02-07T10:31:13.837Z,48.73
2023-02-07T10:35:25.873Z,42.93
2023-02-07T10:39:34.825Z,48.97
2023-02-07T10:43:39.861Z,50.90
2023-02-07T10:47:44.539Z,39.90
2023-02-07T10:51:49.221Z,45.33
2023-02-07T10:55:55.053Z,45.93
2023-02-07T11:00:03.857Z,43.83
2023-02-07T11:04:23.830Z,41.80
2023-02-07T11:08:31.676Z,40.50
2023-02-07T11:12:36.368Z,46.33
2023-02-07T11:16:45.075Z,44.93
2023-02-07T11:20:56.339Z,49.90
2023-02-07T11:25:04.776Z,45.90
2023-02-07T11:29:15.720Z,40.77
2023-02-07T11:33:21.239Z,42.33
2023-02-07T11:37:30.844Z,44.73
2023-02-07T11:41:35.105Z,43.33
2023-02-07T11:45:41.259Z,38.17
2023-02-07T11:49:50.796Z,39.87
2023-02-07T11:54:00.745Z,41.83
2023-02-07T11:58:19.286Z,43.60
2023-02-07T12:02:25.190Z,42.47
2023-02-07T12:06:34.753Z,38.97
2023-02-07T12:10:43.417Z,37.47
2023-02-07T12:14:53.114Z,42.03
2023-02-07T12:19:04.455Z,34.57
2023-02-07T12:23:39.564Z,49.07
2023-02-07T12:27:44.452Z,46.40
2023-02-07T12:32:02.311Z,31.73
2023-02-07T12:36:14.022Z,41.17
2023-02-07T12:40:26.607Z,38.97
2023-02-07T12:44:35.237Z,37.63
2023-02-07T12:48:59.438Z,35.83
2023-02-07T12:53:18.952Z,37.90
2023-02-07T12:57:34.062Z,36.50
2023-02-07T13:01:48.648Z,35.40
2023-02-07T13:06:05.907Z,39.30
2023-02-07T13:10:22.259Z,37.27
2023-02-07T13:14:36.233Z,38.10
2023-02-07T13:18:50.218Z,29.77
2023-02-07T13:22:58.164Z,29.47
2023-02-07T13:27:06.730Z,38.67
2023-02-07T13:31:15.184Z,34.70
2023-02-07T13:35:22.909Z,39.43
2023-02-07T13:39:39.806Z,38.93
2023-02-07T13:44:08.102Z,31.43
2023-02-07T13:48:20.244Z,32.67
2023-02-07T13:52:37.200Z,34.77
2023-02-07T13:57:15.021Z,29.60
2023-02-07T14:01:20.395Z,31.40
2023-02-07T14:05:27.576Z,35.13
2023-02-07T14:09:36.254Z,29.23
2023-02-07T14:13:41.333Z,29.33
2023-02-07T14:18:02.282Z,27.07
2023-02-07T14:22:16.663Z,30.40
2023-02-07T14:26:51.633Z,25.47
2023-02-07T14:31:17.497Z,26.10
2023-02-07T14:35:38.724Z,28.63
2023-02-07T14:39:41.835Z,32.33
2023-02-07T14:44:03.345Z,31.00
2023-02-07T14:48:41.375Z,25.97
2023-02-07T14:52:46.810Z,25.93
2023-02-07T14:56:57.265Z,23.47
2023-02-07T15:01:03.214Z,22.80
2023-02-07T15:05:25.962Z,23.57
2023-02-07T15:09:30.945Z,24.40
2023-02-07T15:13:38.332Z,26.37
2023-02-07T15:17:44.897Z,28.60
2023-02-07T15:21:49.710Z,23.77
2023-02-07T15:25:53.446Z,21.50
2023-02-07T15:30:00.673Z,22.80
2023-02-07T15:34:10.030Z,21.53
2023-02-07T15:38:21.318Z,23.80
2023-02-07T15:42:25.631Z,28.43
2023-02-07T15:46:46.269Z,22.40
2023-02-07T15:50:56.123Z,24.57
2023-02-07T15:55:01.592Z,24.80
2023-02-07T15:59:13.396Z,20.77
2023-02-07T16:03:21.454Z,26.40
2023-02-07T16:07:28.469Z,31.03
2023-02-07T16:11:41.118Z,27.37
2023-02-07T16:15:55.825Z,31.77
2023-02-07T16:20:01.334Z,33.30
2023-02-07T16:24:19.899Z,50.00
2023-02-07T16:28:22.996Z,44.13
2023-02-07T16:32:28.497Z,29.47
2023-02-07T16:36:33.924Z,25.33
2023-02-07T16:40:42.203Z,24.67
2023-02-07T16:44:50.299Z,19.30
2023-02-07T16:48:53.419Z,26.70
2023-02-07T16:52:58.271Z,28.80
2023-02-07T16:57:04.035Z,25.43
2023-02-07T17:01:07.524Z,21.60
2023-02-07T17:05:11.406Z,21.53
2023-02-07T17:09:19.495Z,30.77
2023-02-07T17:13:27.329Z,26.90
2023-02-07T17:17:30.807Z,29.23
2023-02-07T17:21:35.742Z,24.33
2023-02-07T17:25:38.812Z,24.23
2023-02-07T17:29:45.115Z,32.53
2023-02-07T17:33:51.606Z,27.83
2023-02-07T17:37:56.605Z,27.53
2023-02-07T17:42:02.543Z,26.43
2023-02-07T17:46:17.231Z,28.33
2023-02-07T17:50:22.286Z,30.90
2023-02-07T17:54:25.564Z,22.13
2023-02-07T17:58:31.899Z,26.17
2023-02-07T18:02:36.645Z,27.00
2023-02-07T18:06:40.618Z,30.10
2023-02-07T18:10:44.142Z,38.00
2023-02-07T18:14:47.230Z,35.57
2023-02-07T18:18:52.445Z,28.00
2023-02-07T18:22:59.818Z,30.30
2023-02-07T18:27:04.455Z,32.70
2023-02-07T18:31:13.634Z,28.60
2023-02-07T18:35:18.993Z,27.43
2023-02-07T18:39:22.043Z,28.57
2023-02-07T18:43:27.005Z,27.93
2023-02-07T18:47:30.116Z,38.53
2023-02-07T18:51:44.273Z,23.77
2023-02-07T18:55:50.090Z,19.73
2023-02-07T18:59:56.058Z,22.53
2023-02-07T19:04:01.762Z,25.63
2023-02-07T19:08:08.753Z,26.37
2023-02-07T19:12:11.784Z,24.27
2023-02-07T19:16:16.841Z,27.07
2023-02-07T19:20:22.898Z,22.07
2023-02-07T19:24:27.630Z,21.57
2023-02-07T19:28:32.221Z,24.07
2023-02-07T19:32:35.431Z,25.03
2023-02-07T19:36:39.018Z,23.07
2023-02-07T19:40:43.944Z,26.17
2023-02-07T19:44:50.014Z,31.20
2023-02-07T19:48:54.755Z,26.97
2023-02-07T19:52:57.864Z,27.20
2023-02-07T19:57:04.691Z,33.93
2023-02-07T20:01:08.534Z,27.93
2023-02-07T20:05:11.579Z,33.17
2023-02-07T20:09:14.948Z,33.23
2023-02-07T20:13:19.378Z,32.03
2023-02-07T20:17:22.371Z,22.87
2023-02-07T20:21:28.440Z,26.50
2023-02-07T20:25:33.681Z,29.10
2023-02-07T20:29:38.192Z,30.13
2023-02-07T20:33:43.103Z,31.17
2023-02-07T20:37:48.815Z,26.13
2023-02-07T20:41:57.157Z,25.47
2023-02-07T20:46:08.572Z,24.37
2023-02-07T20:50:11.670Z,32.13
2023-02-07T20:54:17.884Z,31.57
2023-02-07T20:58:20.902Z,29.47
2023-02-07T21:02:27.805Z,28.13
2023-02-07T21:06:31.276Z,27.47
2023-02-07T21:10:35.008Z,27.97
2023-02-07T21:14:38.129Z,36.80
2023-02-07T21:18:47.790Z,24.80
2023-02-07T21:22:54.123Z,28.40
2023-02-07T21:26:57.909Z,33.60
2023-02-07T21:31:05.760Z,30.67
2023-02-07T21:35:10.483Z,36.17
2023-02-07T21:39:16.809Z,28.50
2023-02-07T21:43:20.326Z,25.00
2023-02-07T21:47:23.648Z,31.37
2023-02-07T21:51:31.382Z,25.37
2023-02-07T21:55:38.402Z,25.93
2023-02-07T21:59:43.290Z,23.43
2023-02-07T22:03:49.848Z,18.67
2023-02-07T22:07:54.356Z,24.17
2023-02-07T22:11:57.612Z,24.53
2023-02-07T22:16:00.862Z,19.87
2023-02-07T22:20:04.257Z,25.20
2023-02-07T22:24:09.281Z,20.07
2023-02-07T22:28:13.406Z,18.07
2023-02-07T22:32:16.438Z,25.60
2023-02-07T22:36:25.122Z,25.73
2023-02-07T22:40:29.625Z,24.87
2023-02-07T22:44:40.010Z,23.97
2023-02-07T22:48:43.504Z,26.60
2023-02-07T22:52:48.538Z,21.53
2023-02-07T22:56:55.382Z,22.50
2023-02-07T23:01:01.381Z,22.37
2023-02-07T23:05:04.529Z,25.93
2023-02-07T23:09:10.588Z,28.53
2023-02-07T23:13:17.650Z,21.47
2023-02-07T23:17:26.342Z,28.77
2023-02-07T23:21:33.975Z,26.93
2023-02-07T23:25:36.983Z,23.40
2023-02-07T23:29:46.765Z,25.33
2023-02-07T23:33:51.631Z,25.57
2023-02-07T23:38:02.649Z,27.80
2023-02-07T23:42:10.576Z,33.80
2023-02-07T23:46:16.553Z,34.13
2023-02-07T23:50:20.118Z,34.23
2023-02-07T23:54:23.143Z,29.50
2023-02-07T23:58:27.420Z,35.13
